Disclaimer

Please do not use the information listed here in-flight or in-navigation, as they are not provided to us by the airports but are provided by volunteers, so they might be outdated.

Search


Regions


Airport information page

Radio informations:
BELO HORIZONTE T - 118.0 MHz
SAO PAULO OPS - 122.5 MHz
Ground (GND) - 121.6 MHz
BELO HORIZONTE T - 121.1 MHz
BELO HORIZONTE A - 127.45 MHz
BELO HORIZONTE A - 120.2 MHz

Airport informations:
Latitude: 19° 51' 04.25" S
Longitude: 043° 57' 02.26" W
Elevation: 2589 feet - 789 meters
Operating hours: 24 hour operations
Operating agency: Military-civil joint use airport
Timezone: UTC-3(-2DT)
Fuel: 100/130 octane gasoline, leaded, MIL-L-5572F (GREEN)

Runway information:
13/31 - 8220 x 148 feet< - >2505 x 45 meters

Recent METARs:
SBBH 181700Z 04005KT 9999 SCT040 FEW045TCU 29/16 Q1017
SBBH 181700Z 04005KT 9999 SCT040 FEW045TCU 29/16 Q1017
SBBH 181800Z 01006KT 9999 BKN040 FEW045TCU 27/17 Q1016

Airport on the map: